sensor_id;sensor_type;location;lat;lon;timestamp;temperature;humidity
44111;DHT22;29774;52.664;5.074;2023-04-24T00:02:04;10.50;92.30
44111;DHT22;29774;52.664;5.074;2023-04-24T00:04:32;10.60;92.20
44111;DHT22;29774;52.664;5.074;2023-04-24T00:06:57;10.50;91.90
44111;DHT22;29774;52.664;5.074;2023-04-24T00:09:25;10.50;91.90
44111;DHT22;29774;52.664;5.074;2023-04-24T00:11:52;10.50;91.80
44111;DHT22;29774;52.664;5.074;2023-04-24T00:14:18;10.50;91.80
44111;DHT22;29774;52.664;5.074;2023-04-24T00:16:43;10.40;91.70
44111;DHT22;29774;52.664;5.074;2023-04-24T00:19:09;10.30;91.70
44111;DHT22;29774;52.664;5.074;2023-04-24T00:21:37;10.30;91.80
44111;DHT22;29774;52.664;5.074;2023-04-24T00:24:03;10.20;91.80
44111;DHT22;29774;52.664;5.074;2023-04-24T00:26:29;10.20;91.90
44111;DHT22;29774;52.664;5.074;2023-04-24T00:28:54;10.20;92.00
44111;DHT22;29774;52.664;5.074;2023-04-24T00:31:20;10.20;92.00
44111;DHT22;29774;52.664;5.074;2023-04-24T00:33:45;10.20;92.10
44111;DHT22;29774;52.664;5.074;2023-04-24T00:36:11;10.20;92.10
44111;DHT22;29774;52.664;5.074;2023-04-24T00:38:37;10.20;92.20
44111;DHT22;29774;52.664;5.074;2023-04-24T00:41:02;10.20;92.20
44111;DHT22;29774;52.664;5.074;2023-04-24T00:43:28;10.20;92.20
44111;DHT22;29774;52.664;5.074;2023-04-24T00:45:54;10.10;92.30
44111;DHT22;29774;52.664;5.074;2023-04-24T00:48:20;10.10;92.30
44111;DHT22;29774;52.664;5.074;2023-04-24T00:50:46;10.10;92.30
44111;DHT22;29774;52.664;5.074;2023-04-24T00:53:12;10.10;92.40
44111;DHT22;29774;52.664;5.074;2023-04-24T00:55:37;10.10;92.40
44111;DHT22;29774;52.664;5.074;2023-04-24T00:58:03;10.10;92.40
44111;DHT22;29774;52.664;5.074;2023-04-24T01:00:29;10.10;92.50
44111;DHT22;29774;52.664;5.074;2023-04-24T01:02:57;10.10;92.50
44111;DHT22;29774;52.664;5.074;2023-04-24T01:05:24;10.10;92.50
44111;DHT22;29774;52.664;5.074;2023-04-24T01:07:50;10.10;92.60
44111;DHT22;29774;52.664;5.074;2023-04-24T01:10:16;10.10;92.60
44111;DHT22;29774;52.664;5.074;2023-04-24T01:12:43;10.10;92.60
44111;DHT22;29774;52.664;5.074;2023-04-24T01:15:09;10.10;92.60
44111;DHT22;29774;52.664;5.074;2023-04-24T01:17:35;10.10;92.60
44111;DHT22;29774;52.664;5.074;2023-04-24T01:20:01;10.20;92.60
44111;DHT22;29774;52.664;5.074;2023-04-24T01:22:29;10.10;92.50
44111;DHT22;29774;52.664;5.074;2023-04-24T01:24:55;10.10;92.50
44111;DHT22;29774;52.664;5.074;2023-04-24T01:27:20;10.20;92.50
44111;DHT22;29774;52.664;5.074;2023-04-24T01:29:46;10.20;92.40
44111;DHT22;29774;52.664;5.074;2023-04-24T01:32:14;10.20;92.40
44111;DHT22;29774;52.664;5.074;2023-04-24T01:34:40;10.20;92.40
44111;DHT22;29774;52.664;5.074;2023-04-24T01:37:06;10.20;92.40
44111;DHT22;29774;52.664;5.074;2023-04-24T01:39:32;10.10;92.40
44111;DHT22;29774;52.664;5.074;2023-04-24T01:41:59;10.20;92.40
44111;DHT22;29774;52.664;5.074;2023-04-24T01:44:25;10.10;92.30
44111;DHT22;29774;52.664;5.074;2023-04-24T01:46:51;10.10;92.40
44111;DHT22;29774;52.664;5.074;2023-04-24T01:49:19;10.10;92.40
44111;DHT22;29774;52.664;5.074;2023-04-24T01:51:45;10.10;92.40
44111;DHT22;29774;52.664;5.074;2023-04-24T01:54:10;10.10;92.40
44111;DHT22;29774;52.664;5.074;2023-04-24T01:56:36;10.10;92.40
44111;DHT22;29774;52.664;5.074;2023-04-24T01:59:06;10.10;92.40
44111;DHT22;29774;52.664;5.074;2023-04-24T02:01:36;10.10;92.40
44111;DHT22;29774;52.664;5.074;2023-04-24T02:04:03;10.10;92.40
44111;DHT22;29774;52.664;5.074;2023-04-24T02:06:28;10.10;92.40
44111;DHT22;29774;52.664;5.074;2023-04-24T02:08:54;10.10;92.50
44111;DHT22;29774;52.664;5.074;2023-04-24T02:11:20;10.20;92.50
44111;DHT22;29774;52.664;5.074;2023-04-24T02:13:46;10.10;92.50
44111;DHT22;29774;52.664;5.074;2023-04-24T02:16:11;10.20;92.40
44111;DHT22;29774;52.664;5.074;2023-04-24T02:18:37;10.20;92.40
44111;DHT22;29774;52.664;5.074;2023-04-24T02:21:02;10.20;92.40
44111;DHT22;29774;52.664;5.074;2023-04-24T02:23:28;10.20;92.40
44111;DHT22;29774;52.664;5.074;2023-04-24T02:25:54;10.30;92.40
44111;DHT22;29774;52.664;5.074;2023-04-24T02:28:19;10.20;92.30
44111;DHT22;29774;52.664;5.074;2023-04-24T02:30:45;10.20;92.30
44111;DHT22;29774;52.664;5.074;2023-04-24T02:33:11;10.20;92.30
44111;DHT22;29774;52.664;5.074;2023-04-24T02:35:37;10.20;92.30
44111;DHT22;29774;52.664;5.074;2023-04-24T02:38:03;10.20;92.20
44111;DHT22;29774;52.664;5.074;2023-04-24T02:40:29;10.10;92.20
44111;DHT22;29774;52.664;5.074;2023-04-24T02:42:55;10.10;92.20
44111;DHT22;29774;52.664;5.074;2023-04-24T02:45:21;10.20;92.10
44111;DHT22;29774;52.664;5.074;2023-04-24T02:47:46;10.10;92.10
44111;DHT22;29774;52.664;5.074;2023-04-24T02:50:12;10.10;92.00
44111;DHT22;29774;52.664;5.074;2023-04-24T02:52:37;10.10;91.90
44111;DHT22;29774;52.664;5.074;2023-04-24T02:55:03;10.10;91.90
44111;DHT22;29774;52.664;5.074;2023-04-24T02:57:29;10.10;91.70
44111;DHT22;29774;52.664;5.074;2023-04-24T02:59:55;10.00;91.70
44111;DHT22;29774;52.664;5.074;2023-04-24T03:02:20;10.00;91.70
44111;DHT22;29774;52.664;5.074;2023-04-24T03:04:46;10.00;91.70
44111;DHT22;29774;52.664;5.074;2023-04-24T03:07:13;10.00;91.60
44111;DHT22;29774;52.664;5.074;2023-04-24T03:09:40;10.00;91.70
44111;DHT22;29774;52.664;5.074;2023-04-24T03:12:06;10.00;91.60
44111;DHT22;29774;52.664;5.074;2023-04-24T03:14:31;9.90;91.60
44111;DHT22;29774;52.664;5.074;2023-04-24T03:16:57;9.90;91.60
44111;DHT22;29774;52.664;5.074;2023-04-24T03:19:23;9.90;91.60
44111;DHT22;29774;52.664;5.074;2023-04-24T03:21:49;9.90;91.60
44111;DHT22;29774;52.664;5.074;2023-04-24T03:24:15;9.80;91.60
44111;DHT22;29774;52.664;5.074;2023-04-24T03:26:40;9.80;91.60
44111;DHT22;29774;52.664;5.074;2023-04-24T03:29:06;9.90;91.60
44111;DHT22;29774;52.664;5.074;2023-04-24T03:31:31;9.90;91.60
44111;DHT22;29774;52.664;5.074;2023-04-24T03:33:57;9.80;91.60
44111;DHT22;29774;52.664;5.074;2023-04-24T03:36:23;10.00;91.60
44111;DHT22;29774;52.664;5.074;2023-04-24T03:38:48;10.00;91.50
44111;DHT22;29774;52.664;5.074;2023-04-24T03:41:14;9.90;91.40
44111;DHT22;29774;52.664;5.074;2023-04-24T03:43:40;9.90;91.50
44111;DHT22;29774;52.664;5.074;2023-04-24T03:46:05;9.80;91.50
44111;DHT22;29774;52.664;5.074;2023-04-24T03:48:32;9.80;91.50
44111;DHT22;29774;52.664;5.074;2023-04-24T03:50:57;9.80;91.60
44111;DHT22;29774;52.664;5.074;2023-04-24T03:53:23;9.80;91.60
44111;DHT22;29774;52.664;5.074;2023-04-24T03:55:49;9.80;91.60
44111;DHT22;29774;52.664;5.074;2023-04-24T03:58:14;9.80;91.70
44111;DHT22;29774;52.664;5.074;2023-04-24T04:00:40;9.80;91.80
44111;DHT22;29774;52.664;5.074;2023-04-24T04:03:06;9.80;91.90
44111;DHT22;29774;52.664;5.074;2023-04-24T04:05:32;9.70;91.90
44111;DHT22;29774;52.664;5.074;2023-04-24T04:07:57;9.70;92.00
44111;DHT22;29774;52.664;5.074;2023-04-24T04:10:23;9.80;92.10
44111;DHT22;29774;52.664;5.074;2023-04-24T04:12:49;9.80;92.30
44111;DHT22;29774;52.664;5.074;2023-04-24T04:15:14;9.90;92.20
44111;DHT22;29774;52.664;5.074;2023-04-24T04:17:40;9.80;92.20
44111;DHT22;29774;52.664;5.074;2023-04-24T04:20:06;9.90;92.20
44111;DHT22;29774;52.664;5.074;2023-04-24T04:22:36;9.80;92.20
44111;DHT22;29774;52.664;5.074;2023-04-24T04:25:02;9.90;92.30
44111;DHT22;29774;52.664;5.074;2023-04-24T04:27:28;9.90;92.20
44111;DHT22;29774;52.664;5.074;2023-04-24T04:29:58;9.90;92.20
44111;DHT22;29774;52.664;5.074;2023-04-24T04:32:26;9.90;92.20
44111;DHT22;29774;52.664;5.074;2023-04-24T04:34:52;9.90;92.20
44111;DHT22;29774;52.664;5.074;2023-04-24T04:37:18;9.80;92.10
44111;DHT22;29774;52.664;5.074;2023-04-24T04:39:44;9.90;92.10
44111;DHT22;29774;52.664;5.074;2023-04-24T04:42:10;9.80;92.10
44111;DHT22;29774;52.664;5.074;2023-04-24T04:44:35;9.90;92.10
44111;DHT22;29774;52.664;5.074;2023-04-24T04:47:02;9.90;92.00
44111;DHT22;29774;52.664;5.074;2023-04-24T04:49:31;9.90;92.10
44111;DHT22;29774;52.664;5.074;2023-04-24T04:51:57;9.90;92.00
44111;DHT22;29774;52.664;5.074;2023-04-24T04:54:23;9.80;92.00
44111;DHT22;29774;52.664;5.074;2023-04-24T04:56:51;9.90;92.00
44111;DHT22;29774;52.664;5.074;2023-04-24T04:59:17;10.00;91.90
44111;DHT22;29774;52.664;5.074;2023-04-24T05:01:43;10.10;91.80
44111;DHT22;29774;52.664;5.074;2023-04-24T05:04:08;10.00;91.60
44111;DHT22;29774;52.664;5.074;2023-04-24T05:06:34;10.10;91.50
44111;DHT22;29774;52.664;5.074;2023-04-24T05:09:00;10.20;91.40
44111;DHT22;29774;52.664;5.074;2023-04-24T05:11:25;10.20;91.20
44111;DHT22;29774;52.664;5.074;2023-04-24T05:13:51;10.10;91.00
44111;DHT22;29774;52.664;5.074;2023-04-24T05:16:16;10.00;90.90
44111;DHT22;29774;52.664;5.074;2023-04-24T05:18:42;10.10;90.90
44111;DHT22;29774;52.664;5.074;2023-04-24T05:21:07;10.30;90.60
44111;DHT22;29774;52.664;5.074;2023-04-24T05:23:33;10.40;90.30
44111;DHT22;29774;52.664;5.074;2023-04-24T05:25:58;10.40;90.00
44111;DHT22;29774;52.664;5.074;2023-04-24T05:28:24;10.30;89.80
44111;DHT22;29774;52.664;5.074;2023-04-24T05:30:54;10.40;89.40
44111;DHT22;29774;52.664;5.074;2023-04-24T05:33:21;10.40;89.20
44111;DHT22;29774;52.664;5.074;2023-04-24T05:35:48;10.40;88.90
44111;DHT22;29774;52.664;5.074;2023-04-24T05:38:14;10.60;88.50
44111;DHT22;29774;52.664;5.074;2023-04-24T05:40:42;10.40;88.30
44111;DHT22;29774;52.664;5.074;2023-04-24T05:43:08;10.50;88.00
44111;DHT22;29774;52.664;5.074;2023-04-24T05:45:34;10.50;87.60
44111;DHT22;29774;52.664;5.074;2023-04-24T05:48:01;10.40;87.40
44111;DHT22;29774;52.664;5.074;2023-04-24T05:50:27;10.30;87.10
44111;DHT22;29774;52.664;5.074;2023-04-24T05:52:53;10.40;87.40
44111;DHT22;29774;52.664;5.074;2023-04-24T05:55:19;10.40;87.10
44111;DHT22;29774;52.664;5.074;2023-04-24T05:57:45;10.30;86.80
44111;DHT22;29774;52.664;5.074;2023-04-24T06:00:11;10.10;87.00
44111;DHT22;29774;52.664;5.074;2023-04-24T06:02:38;10.00;87.40
44111;DHT22;29774;52.664;5.074;2023-04-24T06:05:04;9.90;87.60
44111;DHT22;29774;52.664;5.074;2023-04-24T06:07:30;9.90;87.70
44111;DHT22;29774;52.664;5.074;2023-04-24T06:09:56;9.80;87.90
44111;DHT22;29774;52.664;5.074;2023-04-24T06:12:22;9.80;87.80
44111;DHT22;29774;52.664;5.074;2023-04-24T06:14:48;9.80;87.80
44111;DHT22;29774;52.664;5.074;2023-04-24T06:17:14;9.70;87.80
44111;DHT22;29774;52.664;5.074;2023-04-24T06:19:39;9.60;88.00
44111;DHT22;29774;52.664;5.074;2023-04-24T06:22:06;9.70;88.10
44111;DHT22;29774;52.664;5.074;2023-04-24T06:24:31;9.70;88.00
44111;DHT22;29774;52.664;5.074;2023-04-24T06:26:57;9.80;87.80
44111;DHT22;29774;52.664;5.074;2023-04-24T06:29:25;9.90;87.60
44111;DHT22;29774;52.664;5.074;2023-04-24T06:31:50;9.70;87.60
44111;DHT22;29774;52.664;5.074;2023-04-24T06:34:16;9.50;87.70
44111;DHT22;29774;52.664;5.074;2023-04-24T06:36:42;9.60;87.70
44111;DHT22;29774;52.664;5.074;2023-04-24T06:39:07;9.70;87.70
44111;DHT22;29774;52.664;5.074;2023-04-24T06:41:33;9.70;87.50
44111;DHT22;29774;52.664;5.074;2023-04-24T06:43:58;9.90;87.30
44111;DHT22;29774;52.664;5.074;2023-04-24T06:46:24;10.10;87.00
44111;DHT22;29774;52.664;5.074;2023-04-24T06:48:52;10.00;86.60
44111;DHT22;29774;52.664;5.074;2023-04-24T06:51:22;10.00;86.40
44111;DHT22;29774;52.664;5.074;2023-04-24T06:53:48;10.00;86.30
44111;DHT22;29774;52.664;5.074;2023-04-24T06:56:13;10.00;86.30
44111;DHT22;29774;52.664;5.074;2023-04-24T06:58:39;10.20;86.40
44111;DHT22;29774;52.664;5.074;2023-04-24T07:01:04;10.20;86.10
44111;DHT22;29774;52.664;5.074;2023-04-24T07:03:30;10.20;86.00
44111;DHT22;29774;52.664;5.074;2023-04-24T07:05:56;10.30;85.90
44111;DHT22;29774;52.664;5.074;2023-04-24T07:08:23;10.30;85.80
44111;DHT22;29774;52.664;5.074;2023-04-24T07:10:49;10.30;85.80
44111;DHT22;29774;52.664;5.074;2023-04-24T07:13:16;10.20;85.80
44111;DHT22;29774;52.664;5.074;2023-04-24T07:15:42;10.00;85.80
44111;DHT22;29774;52.664;5.074;2023-04-24T07:18:08;10.20;85.90
44111;DHT22;29774;52.664;5.074;2023-04-24T07:20:33;10.20;86.20
44111;DHT22;29774;52.664;5.074;2023-04-24T07:22:59;10.10;86.30
44111;DHT22;29774;52.664;5.074;2023-04-24T07:25:25;10.20;86.30
44111;DHT22;29774;52.664;5.074;2023-04-24T07:27:51;10.20;86.30
44111;DHT22;29774;52.664;5.074;2023-04-24T07:30:16;10.40;86.30
44111;DHT22;29774;52.664;5.074;2023-04-24T07:32:42;10.50;86.00
44111;DHT22;29774;52.664;5.074;2023-04-24T07:35:08;10.60;85.90
44111;DHT22;29774;52.664;5.074;2023-04-24T07:37:35;10.70;85.40
44111;DHT22;29774;52.664;5.074;2023-04-24T07:40:01;10.80;84.80
44111;DHT22;29774;52.664;5.074;2023-04-24T07:42:27;10.80;84.30
44111;DHT22;29774;52.664;5.074;2023-04-24T07:44:53;10.60;83.90
44111;DHT22;29774;52.664;5.074;2023-04-24T07:47:19;10.70;84.00
44111;DHT22;29774;52.664;5.074;2023-04-24T07:49:44;10.90;83.90
44111;DHT22;29774;52.664;5.074;2023-04-24T07:52:10;10.90;83.40
44111;DHT22;29774;52.664;5.074;2023-04-24T07:54:36;10.90;83.60
44111;DHT22;29774;52.664;5.074;2023-04-24T07:57:03;11.00;83.40
44111;DHT22;29774;52.664;5.074;2023-04-24T07:59:29;11.10;83.60
44111;DHT22;29774;52.664;5.074;2023-04-24T08:01:54;11.00;83.50
44111;DHT22;29774;52.664;5.074;2023-04-24T08:04:20;10.70;83.90
44111;DHT22;29774;52.664;5.074;2023-04-24T08:06:47;10.60;84.30
44111;DHT22;29774;52.664;5.074;2023-04-24T08:09:13;10.40;84.70
44111;DHT22;29774;52.664;5.074;2023-04-24T08:11:39;10.40;85.30
44111;DHT22;29774;52.664;5.074;2023-04-24T08:14:04;10.60;85.40
44111;DHT22;29774;52.664;5.074;2023-04-24T08:16:30;10.70;85.20
44111;DHT22;29774;52.664;5.074;2023-04-24T08:18:57;10.60;85.00
44111;DHT22;29774;52.664;5.074;2023-04-24T08:21:23;10.70;85.20
44111;DHT22;29774;52.664;5.074;2023-04-24T08:23:49;10.70;85.00
44111;DHT22;29774;52.664;5.074;2023-04-24T08:26:15;10.80;85.20
44111;DHT22;29774;52.664;5.074;2023-04-24T08:28:40;11.10;84.90
44111;DHT22;29774;52.664;5.074;2023-04-24T08:31:06;11.50;84.40
44111;DHT22;29774;52.664;5.074;2023-04-24T08:33:32;11.50;83.60
44111;DHT22;29774;52.664;5.074;2023-04-24T08:36:04;11.70;83.20
44111;DHT22;29774;52.664;5.074;2023-04-24T08:38:30;11.50;82.30
44111;DHT22;29774;52.664;5.074;2023-04-24T08:40:57;11.40;82.60
44111;DHT22;29774;52.664;5.074;2023-04-24T08:43:23;11.60;82.90
44111;DHT22;29774;52.664;5.074;2023-04-24T08:45:51;11.70;81.70
44111;DHT22;29774;52.664;5.074;2023-04-24T08:48:17;11.90;81.50
44111;DHT22;29774;52.664;5.074;2023-04-24T08:50:43;11.80;81.20
44111;DHT22;29774;52.664;5.074;2023-04-24T08:53:10;11.80;81.60
44111;DHT22;29774;52.664;5.074;2023-04-24T08:55:37;11.90;81.80
44111;DHT22;29774;52.664;5.074;2023-04-24T08:58:03;12.00;81.10
44111;DHT22;29774;52.664;5.074;2023-04-24T09:00:30;12.00;80.60
44111;DHT22;29774;52.664;5.074;2023-04-24T09:02:56;12.20;80.70
44111;DHT22;29774;52.664;5.074;2023-04-24T09:05:46;12.20;80.10
44111;DHT22;29774;52.664;5.074;2023-04-24T09:08:13;12.00;78.80
44111;DHT22;29774;52.664;5.074;2023-04-24T09:10:39;12.10;79.50
44111;DHT22;29774;52.664;5.074;2023-04-24T09:13:05;12.00;79.30
44111;DHT22;29774;52.664;5.074;2023-04-24T09:15:32;12.20;79.90
44111;DHT22;29774;52.664;5.074;2023-04-24T09:17:57;12.20;79.50
44111;DHT22;29774;52.664;5.074;2023-04-24T09:20:23;12.10;79.50
44111;DHT22;29774;52.664;5.074;2023-04-24T09:22:53;12.20;79.70
44111;DHT22;29774;52.664;5.074;2023-04-24T09:25:19;12.30;78.30
44111;DHT22;29774;52.664;5.074;2023-04-24T09:27:45;12.30;78.50
44111;DHT22;29774;52.664;5.074;2023-04-24T09:30:12;12.20;78.30
44111;DHT22;29774;52.664;5.074;2023-04-24T09:32:37;12.20;78.80
44111;DHT22;29774;52.664;5.074;2023-04-24T09:35:07;12.20;78.80
44111;DHT22;29774;52.664;5.074;2023-04-24T09:37:38;12.30;79.50
44111;DHT22;29774;52.664;5.074;2023-04-24T09:42:33;12.20;77.70
44111;DHT22;29774;52.664;5.074;2023-04-24T09:44:59;12.20;78.10
44111;DHT22;29774;52.664;5.074;2023-04-24T09:47:24;12.00;77.60
44111;DHT22;29774;52.664;5.074;2023-04-24T09:49:50;12.10;78.10
44111;DHT22;29774;52.664;5.074;2023-04-24T09:52:15;12.20;79.10
44111;DHT22;29774;52.664;5.074;2023-04-24T09:54:41;12.30;78.70
44111;DHT22;29774;52.664;5.074;2023-04-24T09:57:10;12.40;78.70
44111;DHT22;29774;52.664;5.074;2023-04-24T09:59:42;12.40;78.20
44111;DHT22;29774;52.664;5.074;2023-04-24T10:02:17;12.40;78.70
44111;DHT22;29774;52.664;5.074;2023-04-24T10:04:57;12.40;77.90
44111;DHT22;29774;52.664;5.074;2023-04-24T10:07:26;12.50;78.70
44111;DHT22;29774;52.664;5.074;2023-04-24T10:09:52;12.50;78.30
44111;DHT22;29774;52.664;5.074;2023-04-24T10:12:18;12.50;78.50
44111;DHT22;29774;52.664;5.074;2023-04-24T10:14:45;12.30;77.50
44111;DHT22;29774;52.664;5.074;2023-04-24T10:17:12;12.30;77.50
44111;DHT22;29774;52.664;5.074;2023-04-24T10:19:38;12.20;76.50
44111;DHT22;29774;52.664;5.074;2023-04-24T10:22:04;12.00;75.50
44111;DHT22;29774;52.664;5.074;2023-04-24T10:24:31;12.00;76.40
44111;DHT22;29774;52.664;5.074;2023-04-24T10:26:58;12.10;77.40
44111;DHT22;29774;52.664;5.074;2023-04-24T10:29:24;12.00;76.40
44111;DHT22;29774;52.664;5.074;2023-04-24T10:31:51;12.20;77.90
44111;DHT22;29774;52.664;5.074;2023-04-24T10:34:18;12.10;76.00
44111;DHT22;29774;52.664;5.074;2023-04-24T10:36:49;12.10;76.60
44111;DHT22;29774;52.664;5.074;2023-04-24T10:39:16;12.00;76.70
44111;DHT22;29774;52.664;5.074;2023-04-24T10:41:43;12.20;77.20
44111;DHT22;29774;52.664;5.074;2023-04-24T10:44:10;12.20;77.60
44111;DHT22;29774;52.664;5.074;2023-04-24T10:46:37;12.20;76.60
44111;DHT22;29774;52.664;5.074;2023-04-24T10:49:07;12.20;77.30
44111;DHT22;29774;52.664;5.074;2023-04-24T10:51:48;12.30;77.00
44111;DHT22;29774;52.664;5.074;2023-04-24T10:54:29;12.30;76.70
44111;DHT22;29774;52.664;5.074;2023-04-24T10:59:47;12.40;77.00
44111;DHT22;29774;52.664;5.074;2023-04-24T11:02:17;12.50;77.90
44111;DHT22;29774;52.664;5.074;2023-04-24T11:04:43;12.20;75.60
44111;DHT22;29774;52.664;5.074;2023-04-24T11:07:10;12.30;78.00
44111;DHT22;29774;52.664;5.074;2023-04-24T11:09:37;12.50;77.30
44111;DHT22;29774;52.664;5.074;2023-04-24T11:12:07;12.60;78.00
44111;DHT22;29774;52.664;5.074;2023-04-24T11:14:59;12.70;77.00
44111;DHT22;29774;52.664;5.074;2023-04-24T11:20:16;12.80;76.10
44111;DHT22;29774;52.664;5.074;2023-04-24T11:22:42;12.90;77.00
44111;DHT22;29774;52.664;5.074;2023-04-24T11:25:08;13.00;77.40
44111;DHT22;29774;52.664;5.074;2023-04-24T11:27:42;13.10;77.00
44111;DHT22;29774;52.664;5.074;2023-04-24T11:30:10;13.20;77.30
44111;DHT22;29774;52.664;5.074;2023-04-24T11:32:36;13.20;76.60
44111;DHT22;29774;52.664;5.074;2023-04-24T11:35:25;13.20;76.30
44111;DHT22;29774;52.664;5.074;2023-04-24T11:37:53;13.20;75.10
44111;DHT22;29774;52.664;5.074;2023-04-24T11:40:21;13.10;76.50
44111;DHT22;29774;52.664;5.074;2023-04-24T11:42:49;13.10;75.50
44111;DHT22;29774;52.664;5.074;2023-04-24T11:45:25;13.00;74.80
44111;DHT22;29774;52.664;5.074;2023-04-24T11:47:51;12.70;74.50
44111;DHT22;29774;52.664;5.074;2023-04-24T11:50:19;12.60;75.40
44111;DHT22;29774;52.664;5.074;2023-04-24T11:52:46;12.70;76.90
44111;DHT22;29774;52.664;5.074;2023-04-24T11:57:52;12.60;76.80
44111;DHT22;29774;52.664;5.074;2023-04-24T12:00:20;12.50;75.20
44111;DHT22;29774;52.664;5.074;2023-04-24T12:02:46;12.30;74.80
44111;DHT22;29774;52.664;5.074;2023-04-24T12:05:21;12.20;74.70
44111;DHT22;29774;52.664;5.074;2023-04-24T12:07:47;12.30;76.20
44111;DHT22;29774;52.664;5.074;2023-04-24T12:10:12;12.40;75.20
44111;DHT22;29774;52.664;5.074;2023-04-24T12:12:38;12.50;75.60
44111;DHT22;29774;52.664;5.074;2023-04-24T12:15:08;12.50;75.90
44111;DHT22;29774;52.664;5.074;2023-04-24T12:17:35;12.70;76.80
44111;DHT22;29774;52.664;5.074;2023-04-24T12:20:07;12.70;76.70
44111;DHT22;29774;52.664;5.074;2023-04-24T12:22:47;12.80;76.20
44111;DHT22;29774;52.664;5.074;2023-04-24T12:25:17;13.00;76.80
44111;DHT22;29774;52.664;5.074;2023-04-24T12:27:51;13.10;76.30
44111;DHT22;29774;52.664;5.074;2023-04-24T12:30:17;13.10;76.30
44111;DHT22;29774;52.664;5.074;2023-04-24T12:32:49;13.10;76.10
44111;DHT22;29774;52.664;5.074;2023-04-24T12:35:23;13.20;76.20
44111;DHT22;29774;52.664;5.074;2023-04-24T12:37:49;13.20;76.60
44111;DHT22;29774;52.664;5.074;2023-04-24T12:40:18;13.20;76.70
44111;DHT22;29774;52.664;5.074;2023-04-24T12:42:48;13.20;76.20
44111;DHT22;29774;52.664;5.074;2023-04-24T12:45:15;13.20;76.20
44111;DHT22;29774;52.664;5.074;2023-04-24T12:47:42;13.30;76.20
44111;DHT22;29774;52.664;5.074;2023-04-24T12:50:09;13.30;76.30
44111;DHT22;29774;52.664;5.074;2023-04-24T12:52:35;13.30;76.10
44111;DHT22;29774;52.664;5.074;2023-04-24T12:55:01;13.30;76.30
44111;DHT22;29774;52.664;5.074;2023-04-24T12:57:29;13.30;76.90
44111;DHT22;29774;52.664;5.074;2023-04-24T12:59:56;13.20;76.00
44111;DHT22;29774;52.664;5.074;2023-04-24T13:02:23;13.20;75.40
44111;DHT22;29774;52.664;5.074;2023-04-24T13:04:49;13.20;75.00
44111;DHT22;29774;52.664;5.074;2023-04-24T13:07:16;13.20;75.70
44111;DHT22;29774;52.664;5.074;2023-04-24T13:09:43;13.20;77.20
44111;DHT22;29774;52.664;5.074;2023-04-24T13:12:10;13.10;75.10
44111;DHT22;29774;52.664;5.074;2023-04-24T13:14:36;13.10;76.00
44111;DHT22;29774;52.664;5.074;2023-04-24T13:17:02;13.10;76.20
44111;DHT22;29774;52.664;5.074;2023-04-24T13:19:28;12.80;72.10
44111;DHT22;29774;52.664;5.074;2023-04-24T13:21:55;12.70;72.90
44111;DHT22;29774;52.664;5.074;2023-04-24T13:24:22;12.80;72.60
44111;DHT22;29774;52.664;5.074;2023-04-24T13:26:50;12.80;75.10
44111;DHT22;29774;52.664;5.074;2023-04-24T13:29:16;13.00;77.00
44111;DHT22;29774;52.664;5.074;2023-04-24T13:31:42;13.00;75.20
44111;DHT22;29774;52.664;5.074;2023-04-24T13:34:08;13.00;74.50
44111;DHT22;29774;52.664;5.074;2023-04-24T13:36:33;12.90;75.20
44111;DHT22;29774;52.664;5.074;2023-04-24T13:38:59;12.90;75.50
44111;DHT22;29774;52.664;5.074;2023-04-24T13:41:24;12.90;74.40
44111;DHT22;29774;52.664;5.074;2023-04-24T13:43:50;13.00;74.80
44111;DHT22;29774;52.664;5.074;2023-04-24T13:46:16;13.00;75.90
44111;DHT22;29774;52.664;5.074;2023-04-24T13:48:42;13.10;76.10
44111;DHT22;29774;52.664;5.074;2023-04-24T13:51:07;13.20;76.90
44111;DHT22;29774;52.664;5.074;2023-04-24T13:53:33;13.20;76.50
44111;DHT22;29774;52.664;5.074;2023-04-24T13:56:01;13.00;76.30
44111;DHT22;29774;52.664;5.074;2023-04-24T13:58:27;12.80;75.50
44111;DHT22;29774;52.664;5.074;2023-04-24T14:00:53;12.70;75.90
44111;DHT22;29774;52.664;5.074;2023-04-24T14:03:18;12.70;76.70
44111;DHT22;29774;52.664;5.074;2023-04-24T14:05:44;12.70;76.30
44111;DHT22;29774;52.664;5.074;2023-04-24T14:08:10;12.70;76.00
44111;DHT22;29774;52.664;5.074;2023-04-24T14:10:35;12.70;76.20
44111;DHT22;29774;52.664;5.074;2023-04-24T14:13:01;12.70;76.30
44111;DHT22;29774;52.664;5.074;2023-04-24T14:15:27;12.70;76.80
44111;DHT22;29774;52.664;5.074;2023-04-24T14:17:53;12.80;76.10
44111;DHT22;29774;52.664;5.074;2023-04-24T14:20:18;13.00;77.10
44111;DHT22;29774;52.664;5.074;2023-04-24T14:22:44;13.00;76.60
44111;DHT22;29774;52.664;5.074;2023-04-24T14:25:11;13.10;77.40
44111;DHT22;29774;52.664;5.074;2023-04-24T14:27:36;13.10;76.70
44111;DHT22;29774;52.664;5.074;2023-04-24T14:30:03;13.20;77.50
44111;DHT22;29774;52.664;5.074;2023-04-24T14:32:29;13.20;76.60
44111;DHT22;29774;52.664;5.074;2023-04-24T14:34:55;13.20;74.70
44111;DHT22;29774;52.664;5.074;2023-04-24T14:37:20;13.10;72.50
44111;DHT22;29774;52.664;5.074;2023-04-24T14:39:46;13.20;76.90
44111;DHT22;29774;52.664;5.074;2023-04-24T14:42:12;13.10;72.60
44111;DHT22;29774;52.664;5.074;2023-04-24T14:44:37;13.20;76.00
44111;DHT22;29774;52.664;5.074;2023-04-24T14:47:03;13.20;75.20
44111;DHT22;29774;52.664;5.074;2023-04-24T14:49:28;13.10;71.90
44111;DHT22;29774;52.664;5.074;2023-04-24T14:51:54;13.20;74.20
44111;DHT22;29774;52.664;5.074;2023-04-24T14:54:20;13.10;74.30
44111;DHT22;29774;52.664;5.074;2023-04-24T14:56:48;13.20;74.60
44111;DHT22;29774;52.664;5.074;2023-04-24T14:59:14;13.10;72.80
44111;DHT22;29774;52.664;5.074;2023-04-24T15:01:40;13.10;74.60
44111;DHT22;29774;52.664;5.074;2023-04-24T15:04:05;13.20;76.00
44111;DHT22;29774;52.664;5.074;2023-04-24T15:06:31;13.20;74.70
44111;DHT22;29774;52.664;5.074;2023-04-24T15:08:58;13.20;74.80
44111;DHT22;29774;52.664;5.074;2023-04-24T15:11:24;13.20;75.00
44111;DHT22;29774;52.664;5.074;2023-04-24T15:13:49;13.20;75.00
44111;DHT22;29774;52.664;5.074;2023-04-24T15:16:15;13.20;73.90
44111;DHT22;29774;52.664;5.074;2023-04-24T15:18:41;13.20;76.80
44111;DHT22;29774;52.664;5.074;2023-04-24T15:21:07;13.20;77.10
44111;DHT22;29774;52.664;5.074;2023-04-24T15:23:33;13.20;77.20
44111;DHT22;29774;52.664;5.074;2023-04-24T15:25:58;13.10;76.80
44111;DHT22;29774;52.664;5.074;2023-04-24T15:28:27;13.00;76.20
44111;DHT22;29774;52.664;5.074;2023-04-24T15:30:52;13.00;76.00
44111;DHT22;29774;52.664;5.074;2023-04-24T15:33:18;12.60;73.60
44111;DHT22;29774;52.664;5.074;2023-04-24T15:35:44;12.80;77.20
44111;DHT22;29774;52.664;5.074;2023-04-24T15:38:10;13.00;77.60
44111;DHT22;29774;52.664;5.074;2023-04-24T15:40:36;12.80;75.20